Time;durP1;ratioP1;P1;durP2;ratioP2;P2;SDS_P1;SDS_P2;PMS_P1;PMS_P2;Temp;Humidity;BMP_temperature;BMP_pressure;BME280_temperature;BME280_humidity;BME280_pressure;Samples;Min_cycle;Max_cycle;Signal;HPM_P1;HPM_P2
2021/12/19 00:01:55;;;;;;;21.33;11.45;;;;;;;4.91;68.28;100613.56;4380262;32;35463;-78
2021/12/19 00:04:54;;;;;;;19.42;10.65;;;;;;;5.07;68.14;100603.91;4382153;32;33885;-77
2021/12/19 00:10:08;;;;;;;20.30;10.50;;;;;;;5.58;66.02;100609.59;4382102;32;33163;-78
2021/12/19 00:12:38;;;;;;;18.77;10.18;;;;;;;5.25;67.25;100602.06;4380345;32;35329;-77
2021/12/19 00:15:06;;;;;;;21.73;10.50;;;;;;;5.04;68.11;100610.50;4392464;32;33726;-77
2021/12/19 00:17:34;;;;;;;21.50;10.63;;;;;;;5.02;68.39;100604.38;4393693;32;34150;-78
2021/12/19 00:20:03;;;;;;;20.12;10.70;;;;;;;5.01;68.07;100597.22;4380009;32;33645;-78
2021/12/19 00:22:50;;;;;;;21.20;10.90;;;;;;;5.34;67.24;100586.69;4392803;32;34163;-77
2021/12/19 00:25:18;;;;;;;25.25;11.52;;;;;;;5.17;67.45;100596.56;4379739;32;32602;-77
2021/12/19 00:27:46;;;;;;;19.58;10.20;;;;;;;5.26;67.64;100584.72;4380000;32;32021;-78
2021/12/19 00:30:13;;;;;;;18.50;10.13;;;;;;;5.70;66.17;100588.44;4379663;32;32112;-77
2021/12/19 00:32:41;;;;;;;21.02;10.13;;;;;;;5.41;67.07;100579.63;4379956;32;32969;-77
2021/12/19 00:35:09;;;;;;;20.70;11.15;;;;;;;5.67;66.40;100577.00;4368858;32;34077;-77
2021/12/19 00:37:36;;;;;;;19.00;10.85;;;;;;;5.48;67.11;100580.72;4379933;32;34063;-77
2021/12/19 00:40:05;;;;;;;26.75;11.25;;;;;;;5.27;67.64;100570.13;4393130;32;34442;-77
2021/12/19 00:42:34;;;;;;;20.62;10.80;;;;;;;5.86;66.05;100565.91;4393493;32;34521;-78
2021/12/19 00:45:28;;;;;;;20.85;10.75;;;;;;;5.19;68.01;100578.22;4379652;32;33274;-78
2021/12/19 00:47:56;;;;;;;19.98;10.93;;;;;;;5.02;68.96;100571.72;4379662;32;33920;-78
2021/12/19 00:50:25;;;;;;;24.67;12.23;;;;;;;5.34;68.09;100570.34;4367401;32;32796;-78
2021/12/19 00:52:53;;;;;;;21.52;11.70;;;;;;;5.26;68.53;100582.00;4379579;32;34463;-78
2021/12/19 00:55:23;;;;;;;20.40;10.85;;;;;;;5.04;69.36;100568.84;4367302;32;32248;-78
2021/12/19 00:57:54;;;;;;;22.80;11.05;;;;;;;5.03;69.52;100564.41;4379755;32;33546;-77
2021/12/19 01:00:26;;;;;;;23.87;10.95;;;;;;;4.78;70.74;100564.09;4379439;32;32250;-78
2021/12/19 01:02:58;;;;;;;24.00;12.27;;;;;;;5.10;69.36;100565.53;4379719;32;34690;-78
2021/12/19 01:05:28;;;;;;;21.48;11.15;;;;;;;4.86;70.76;100566.94;4380098;32;34129;-78
2021/12/19 01:07:55;;;;;;;21.90;11.15;;;;;;;5.22;69.58;100567.00;4379826;32;33432;-78
2021/12/19 01:10:23;;;;;;;20.75;10.93;;;;;;;5.28;69.36;100566.37;4367286;32;34549;-78
2021/12/19 01:12:51;;;;;;;20.12;11.00;;;;;;;5.41;68.61;100560.56;4367047;32;32979;-78
2021/12/19 01:15:20;;;;;;;21.10;11.60;;;;;;;5.20;69.98;100558.97;4367237;32;33988;-77
2021/12/19 01:17:47;;;;;;;24.30;11.32;;;;;;;4.89;70.64;100553.03;4379739;32;33405;-78
2021/12/19 01:20:21;;;;;;;22.52;11.50;;;;;;;5.11;70.29;100537.31;4355004;32;32673;-78
2021/12/19 01:22:49;;;;;;;20.70;10.70;;;;;;;5.01;70.60;100533.78;4379539;32;35268;-78
2021/12/19 01:25:18;;;;;;;23.80;11.90;;;;;;;4.97;70.96;100528.66;4379031;32;34217;-77
2021/12/19 01:27:48;;;;;;;24.25;11.70;;;;;;;5.00;71.22;100523.91;4379439;32;33334;-78
2021/12/19 01:30:16;;;;;;;25.25;11.50;;;;;;;5.36;69.64;100516.62;4379242;32;33128;-77
2021/12/19 01:32:44;;;;;;;21.12;10.68;;;;;;;5.26;70.45;100519.41;4379415;32;35169;-78
2021/12/19 01:35:13;;;;;;;23.38;12.35;;;;;;;5.32;70.34;100520.66;4366431;32;33625;-77
2021/12/19 01:37:42;;;;;;;24.92;12.40;;;;;;;5.27;70.63;100507.53;4368415;32;34157;-78
2021/12/19 01:40:11;;;;;;;23.85;12.30;;;;;;;5.31;70.90;100514.38;4363953;32;32206;-78
2021/12/19 01:42:41;;;;;;;21.48;12.43;;;;;;;5.59;69.84;100510.56;4351888;32;32829;-78
2021/12/19 01:45:11;;;;;;;22.60;11.10;;;;;;;5.56;69.76;100513.59;4351418;32;33356;-78
2021/12/19 01:47:39;;;;;;;21.27;10.85;;;;;;;5.68;69.70;100514.22;4364418;32;34137;-78
2021/12/19 01:50:08;;;;;;;20.33;10.88;;;;;;;5.42;70.36;100518.72;4364199;32;33622;-78
2021/12/19 01:52:36;;;;;;;19.85;10.43;;;;;;;5.69;69.62;100515.91;4352067;32;34547;-78
2021/12/19 01:55:06;;;;;;;19.17;10.32;;;;;;;5.55;70.04;100506.44;4351844;32;33700;-77
2021/12/19 01:57:34;;;;;;;21.80;10.57;;;;;;;5.68;69.76;100505.19;4364202;32;33462;-78
2021/12/19 02:00:05;;;;;;;19.55;9.77;;;;;;;5.81;69.52;100505.63;4351858;32;32233;-78
2021/12/19 02:02:33;;;;;;;17.42;9.73;;;;;;;6.11;68.52;100494.28;4364093;32;35379;-78
2021/12/19 02:05:01;;;;;;;18.83;9.43;;;;;;;5.79;69.22;100483.16;4365379;32;34004;-78
2021/12/19 02:07:28;;;;;;;20.10;9.95;;;;;;;5.73;69.56;100475.59;4365820;32;31918;-78
2021/12/19 02:09:56;;;;;;;19.35;10.15;;;;;;;6.01;69.11;100466.28;4366009;32;33671;-78
2021/12/19 02:12:24;;;;;;;19.15;10.63;;;;;;;5.74;69.80;100464.56;4353514;32;34027;-78
2021/12/19 02:14:52;;;;;;;21.90;10.32;;;;;;;5.97;69.19;100464.03;4353481;32;32421;-78
2021/12/19 02:17:20;;;;;;;19.67;9.98;;;;;;;6.11;68.51;100464.31;4366034;32;34286;-78
2021/12/19 02:19:49;;;;;;;17.90;9.43;;;;;;;6.24;68.09;100453.81;4365929;32;33846;-78
2021/12/19 02:22:17;;;;;;;27.23;11.95;;;;;;;6.34;67.84;100452.84;4365866;32;35369;-78
2021/12/19 02:24:44;;;;;;;22.58;10.68;;;;;;;6.25;68.17;100460.13;4353523;32;33290;-77
2021/12/19 02:27:12;;;;;;;19.42;9.68;;;;;;;5.93;69.43;100449.88;4353409;32;31833;-77
2021/12/19 02:29:43;;;;;;;21.83;11.12;;;;;;;6.45;67.76;100447.09;4353439;32;32089;-78
2021/12/19 02:32:14;;;;;;;18.70;9.82;;;;;;;6.33;67.75;100442.97;4353451;32;32833;-78
2021/12/19 02:34:44;;;;;;;21.50;11.55;;;;;;;6.12;68.52;100429.72;4353464;32;32450;-78
2021/12/19 02:37:42;;;;;;;20.00;10.98;;;;;;;6.31;68.10;100429.50;4365953;32;33258;-78
2021/12/19 02:48:14;;;;;;;19.60;9.52;;;;;;;6.25;67.82;100431.00;4367992;32;33307;-78
2021/12/19 02:50:50;;;;;;;16.60;8.75;;;;;;;6.54;67.23;100418.81;4367286;32;33596;-77
2021/12/19 02:53:45;;;;;;;18.73;9.00;;;;;;;6.75;66.38;100413.78;4365506;32;33851;-77
2021/12/19 02:56:13;;;;;;;14.85;7.97;;;;;;;6.34;67.76;100401.06;4365507;32;32592;-78
2021/12/19 02:58:44;;;;;;;16.85;8.95;;;;;;;6.31;68.10;100404.97;4365754;32;34426;-78
2021/12/19 03:01:16;;;;;;;17.20;9.35;;;;;;;6.15;68.60;100393.97;4387208;32;33681;-78
2021/12/19 03:03:44;;;;;;;19.05;10.35;;;;;;;6.14;68.71;100395.00;4379955;32;33437;-78
2021/12/19 03:06:12;;;;;;;17.50;8.90;;;;;;;6.47;67.77;100390.53;4392603;32;33883;-78
2021/12/19 03:08:44;;;;;;;16.90;9.13;;;;;;;6.27;68.41;100385.34;4392955;32;33330;-75
2021/12/19 03:22:13;;;;;;;14.93;8.48;;;;;;;6.40;67.52;100343.16;4393219;32;33773;-77
2021/12/19 03:24:40;;;;;;;17.37;8.82;;;;;;;6.43;66.51;100351.84;4381349;32;34109;-77
2021/12/19 03:27:08;;;;;;;16.55;9.02;;;;;;;6.12;68.26;100343.38;4393158;32;34240;-77
2021/12/19 03:29:36;;;;;;;14.50;7.97;;;;;;;6.25;67.65;100346.50;4392822;32;31886;-77
2021/12/19 03:32:04;;;;;;;15.85;8.38;;;;;;;6.44;66.92;100355.44;4380675;32;34488;-77
2021/12/19 03:34:35;;;;;;;17.40;9.10;;;;;;;6.11;67.82;100351.72;4380690;32;32882;-77
2021/12/19 03:37:03;;;;;;;15.77;8.68;;;;;;;6.31;67.64;100347.72;4380581;32;33854;-77
2021/12/19 03:39:44;;;;;;;17.83;9.27;;;;;;;6.18;67.90;100342.72;4392933;32;32979;-77
2021/12/19 03:42:14;;;;;;;16.48;8.45;;;;;;;6.12;68.01;100320.72;4380841;32;33375;-77
2021/12/19 03:44:42;;;;;;;16.12;8.13;;;;;;;6.13;67.78;100311.53;4392578;32;34568;-77
2021/12/19 03:47:09;;;;;;;13.27;7.80;;;;;;;6.26;67.45;100295.56;4380093;32;33538;-77
2021/12/19 03:49:37;;;;;;;16.42;8.57;;;;;;;6.33;67.04;100312.97;4380381;32;33625;-77
2021/12/19 03:52:05;;;;;;;14.98;7.97;;;;;;;6.22;67.36;100308.69;4379979;32;33235;-77
2021/12/19 03:54:35;;;;;;;18.75;9.27;;;;;;;6.39;66.63;100316.91;4380103;32;33821;-77
2021/12/19 03:57:03;;;;;;;14.77;8.73;;;;;;;6.17;67.16;100300.12;4380348;32;34529;-77
2021/12/19 03:59:31;;;;;;;16.62;9.15;;;;;;;6.35;67.11;100315.53;4392534;32;32837;-77
2021/12/19 04:01:59;;;;;;;16.02;9.43;;;;;;;6.20;67.37;100308.00;4380142;32;32388;-77
2021/12/19 04:04:29;;;;;;;15.82;8.88;;;;;;;6.09;67.71;100310.16;4392377;32;35363;-77
2021/12/19 04:06:57;;;;;;;15.25;8.88;;;;;;;6.15;67.51;100315.81;4379967;32;33360;-77
2021/12/19 04:09:24;;;;;;;16.73;9.88;;;;;;;6.19;67.07;100305.44;4380074;32;31898;-77
2021/12/19 04:11:55;;;;;;;21.45;10.38;;;;;;;6.32;66.40;100315.84;4393736;32;34456;-77
2021/12/19 04:14:23;;;;;;;18.15;9.77;;;;;;;6.26;66.63;100320.94;4379945;32;33737;-77
2021/12/19 04:16:50;;;;;;;17.10;9.75;;;;;;;5.86;67.77;100315.31;4392202;32;34376;-77
2021/12/19 04:19:20;;;;;;;19.17;10.45;;;;;;;6.15;67.15;100312.22;4379941;32;31060;-77
2021/12/19 04:21:48;;;;;;;17.23;9.65;;;;;;;6.15;66.78;100309.50;4379955;32;32199;-77
2021/12/19 04:24:16;;;;;;;18.62;9.55;;;;;;;6.18;65.86;100309.16;4379908;32;32913;-77
2021/12/19 04:26:43;;;;;;;18.15;10.30;;;;;;;6.10;66.22;100317.31;4379280;32;33750;-77
2021/12/19 04:29:11;;;;;;;18.75;10.73;;;;;;;6.07;66.73;100310.31;4379956;32;33662;-77
2021/12/19 04:31:40;;;;;;;19.35;10.32;;;;;;;6.24;65.83;100298.47;4367462;32;32238;-77
2021/12/19 04:34:08;;;;;;;18.42;9.75;;;;;;;6.08;66.13;100295.69;4379862;32;34339;-77
2021/12/19 04:36:40;;;;;;;19.25;10.77;;;;;;;6.39;65.51;100287.75;4392173;32;33663;-77
2021/12/19 04:39:25;;;;;;;19.27;10.73;;;;;;;6.35;65.41;100289.13;4392195;32;34273;-77
2021/12/19 04:58:13;;;;;;;15.85;8.35;;;;;;;5.86;66.71;100250.78;4379846;32;34238;-77
2021/12/19 05:03:52;;;;;;;16.12;8.85;;;;;;;5.89;66.01;100236.87;4381611;32;34436;-77
2021/12/19 05:14:00;;;;;;;14.82;8.32;;;;;;;6.13;65.71;100233.37;4381830;32;33886;-77
2021/12/19 05:14:58;;;;;;;16.05;8.60;;;;;;;5.89;66.31;100217.81;4381545;32;33890;-77
2021/12/19 05:17:28;;;;;;;17.00;9.02;;;;;;;5.76;67.06;100222.88;4367416;32;35411;-77
2021/12/19 05:20:15;;;;;;;16.95;8.60;;;;;;;5.91;66.35;100220.37;4366937;32;32527;-77
2021/12/19 05:22:48;;;;;;;15.45;8.75;;;;;;;5.61;67.48;100211.75;4369104;32;33266;-77
2021/12/19 05:25:19;;;;;;;16.30;9.13;;;;;;;5.41;68.28;100218.47;4366599;32;32230;-77
2021/12/19 05:27:52;;;;;;;14.65;8.82;;;;;;;5.87;66.96;100208.06;4367055;32;33075;-77
2021/12/19 05:30:20;;;;;;;14.65;8.50;;;;;;;5.49;68.36;100190.41;4366856;32;33101;-77
2021/12/19 05:32:49;;;;;;;16.35;8.93;;;;;;;5.63;67.79;100198.81;4379298;32;33548;-77
2021/12/19 05:35:48;;;;;;;13.23;8.27;;;;;;;5.77;67.19;100191.88;4378929;32;32087;-77
2021/12/19 05:46:29;;;;;;;15.90;8.02;;;;;;;5.87;67.24;100191.72;4383012;32;33589;-77
2021/12/19 05:49:01;;;;;;;16.12;8.32;;;;;;;5.79;67.80;100198.03;4368709;32;32905;-77
2021/12/19 05:51:29;;;;;;;15.52;8.73;;;;;;;5.79;67.93;100186.28;4381181;32;34495;-77
2021/12/19 05:53:56;;;;;;;13.95;8.25;;;;;;;5.74;68.11;100191.38;4380894;32;33261;-77
2021/12/19 05:56:24;;;;;;;14.45;8.65;;;;;;;5.87;67.94;100186.28;4368684;32;33206;-77
2021/12/19 05:58:52;;;;;;;14.40;8.05;;;;;;;5.79;68.16;100192.56;4380783;32;32915;-77
2021/12/19 06:01:19;;;;;;;13.52;8.18;;;;;;;5.75;68.37;100183.03;4380898;32;33964;-77
2021/12/19 06:03:48;;;;;;;13.52;8.38;;;;;;;5.43;69.62;100188.34;4368655;32;33987;-77
2021/12/19 06:06:18;;;;;;;12.48;8.15;;;;;;;5.73;68.97;100185.06;4368587;32;34011;-77
2021/12/19 06:08:46;;;;;;;14.25;7.68;;;;;;;5.63;68.89;100190.66;4380735;32;34580;-77
2021/12/19 06:11:14;;;;;;;12.60;7.10;;;;;;;5.70;69.05;100200.88;4368442;32;32375;-77
2021/12/19 06:13:44;;;;;;;12.50;7.65;;;;;;;5.58;69.57;100192.16;4368519;32;31939;-77
2021/12/19 06:16:12;;;;;;;15.10;8.50;;;;;;;5.36;70.11;100204.47;4380809;32;33485;-77
2021/12/19 06:18:40;;;;;;;13.38;7.90;;;;;;;5.91;68.59;100196.69;4368598;32;35207;-76
2021/12/19 06:21:07;;;;;;;12.75;8.15;;;;;;;5.94;68.22;100185.47;4380671;32;34243;-79
2021/12/19 06:23:39;;;;;;;15.48;8.25;;;;;;;5.67;69.11;100198.50;4368011;32;32559;-77
2021/12/19 06:26:10;;;;;;;14.87;8.13;;;;;;;5.99;67.96;100190.41;4394599;32;33654;-77
2021/12/19 06:28:41;;;;;;;12.20;6.75;;;;;;;5.81;68.77;100195.12;4380419;32;33865;-77
2021/12/19 06:31:11;;;;;;;13.02;7.90;;;;;;;5.95;68.22;100186.31;4380554;32;33517;-77
2021/12/19 06:33:39;;;;;;;11.60;6.55;;;;;;;5.82;68.66;100183.22;4380909;32;34195;-77
2021/12/19 06:36:07;;;;;;;12.95;7.57;;;;;;;5.83;68.61;100191.22;4368667;32;34377;-77
2021/12/19 06:38:34;;;;;;;14.10;7.80;;;;;;;6.32;67.08;100179.56;4380965;32;34407;-77
2021/12/19 06:41:02;;;;;;;13.62;7.40;;;;;;;5.82;68.44;100165.00;4368372;32;34664;-77
2021/12/19 06:43:30;;;;;;;16.33;9.05;;;;;;;6.11;67.71;100167.28;4380405;32;31840;-76
2021/12/19 06:45:58;;;;;;;13.57;8.57;;;;;;;6.39;66.96;100146.00;4368403;32;32161;-77
2021/12/19 06:48:26;;;;;;;15.77;8.20;;;;;;;6.40;66.88;100152.31;4380827;32;34581;-77
2021/12/19 06:50:56;;;;;;;13.55;7.45;;;;;;;6.86;64.91;100151.56;4380542;32;34803;-76
2021/12/19 06:53:23;;;;;;;11.77;6.95;;;;;;;6.35;66.64;100146.53;4368321;32;32203;-77
2021/12/19 06:55:53;;;;;;;11.12;6.75;;;;;;;6.75;65.14;100149.19;4381345;32;34759;-76
2021/12/19 06:58:21;;;;;;;13.18;6.85;;;;;;;6.39;66.35;100147.88;4380413;32;33997;-77
2021/12/19 07:00:49;;;;;;;12.48;6.70;;;;;;;6.76;65.43;100144.59;4380379;32;33842;-76
2021/12/19 07:03:23;;;;;;;12.82;6.75;;;;;;;7.13;63.99;100142.09;4367958;32;32790;-77
2021/12/19 07:05:51;;;;;;;12.70;6.57;;;;;;;7.33;62.67;100134.31;4368786;32;33706;-77
2021/12/19 07:08:22;;;;;;;13.27;7.45;;;;;;;6.60;64.96;100131.81;4367621;32;32831;-77
2021/12/19 07:10:52;;;;;;;14.07;7.47;;;;;;;6.87;64.32;100128.69;4367396;32;32339;-77
2021/12/19 07:13:23;;;;;;;18.23;8.75;;;;;;;7.32;63.03;100134.50;4367529;32;32856;-76
2021/12/19 07:15:53;;;;;;;13.27;7.50;;;;;;;7.10;63.25;100126.09;4380644;32;33699;-77
2021/12/19 07:18:28;;;;;;;16.05;8.30;;;;;;;6.76;64.37;100120.88;4380252;32;34625;-77
2021/12/19 07:20:59;;;;;;;11.68;6.90;;;;;;;7.08;63.31;100124.56;4380719;32;34839;-77
2021/12/19 07:23:27;;;;;;;14.00;8.02;;;;;;;7.16;63.07;100108.97;4380278;32;33379;-77
2021/12/19 07:25:55;;;;;;;16.02;7.97;;;;;;;7.02;63.64;100107.00;4368160;32;34280;-77
2021/12/19 07:28:22;;;;;;;14.02;7.80;;;;;;;7.21;62.81;100111.16;4367789;32;34430;-77
2021/12/19 07:30:50;;;;;;;13.00;7.72;;;;;;;7.55;62.17;100108.13;4367815;32;34080;-77
2021/12/19 07:33:18;;;;;;;14.75;8.02;;;;;;;7.13;63.23;100109.34;4380255;32;34095;-77
2021/12/19 07:35:48;;;;;;;13.10;7.62;;;;;;;6.84;64.23;100128.19;4380278;32;33628;-76
2021/12/19 07:38:30;;;;;;;11.30;7.03;;;;;;;6.85;64.68;100124.44;4380809;32;34328;-76
2021/12/19 07:40:59;;;;;;;11.10;6.18;;;;;;;7.00;63.99;100116.41;4375310;32;32446;-76
2021/12/19 07:43:26;;;;;;;21.70;11.48;;;;;;;6.79;64.71;100103.31;4367697;32;31756;-77
2021/12/19 07:45:55;;;;;;;13.75;7.65;;;;;;;7.19;63.59;100119.53;4379875;32;32216;-77
2021/12/19 07:48:25;;;;;;;14.15;7.32;;;;;;;7.17;63.32;100113.41;4380088;32;34314;-77
2021/12/19 07:50:54;;;;;;;13.62;7.68;;;;;;;6.71;64.51;100115.09;4380017;32;33245;-77
2021/12/19 07:53:21;;;;;;;12.50;7.72;;;;;;;7.11;63.84;100111.41;4379914;32;31688;-77
2021/12/19 07:55:51;;;;;;;14.15;7.80;;;;;;;6.77;64.84;100106.22;4367516;32;33803;-77
2021/12/19 07:58:19;;;;;;;15.20;8.02;;;;;;;7.03;63.83;100099.66;4367822;32;34542;-77
2021/12/19 08:00:47;;;;;;;15.35;8.23;;;;;;;6.93;64.11;100092.53;4367444;32;33908;-77
2021/12/19 08:03:14;;;;;;;14.20;7.72;;;;;;;7.02;63.96;100089.78;4367294;32;34292;-77
2021/12/19 08:05:42;;;;;;;12.70;6.78;;;;;;;7.01;64.30;100088.94;4367718;32;33616;-78
2021/12/19 08:08:17;;;;;;;11.60;6.68;;;;;;;7.08;63.94;100083.63;4367418;32;35299;-77
2021/12/19 08:13:15;;;;;;;12.98;6.87;;;;;;;6.88;64.97;100075.00;4380066;32;33286;-77
2021/12/19 08:15:42;;;;;;;12.10;6.12;;;;;;;6.98;64.67;100070.19;4367274;32;32423;-77
2021/12/19 08:18:13;;;;;;;12.50;6.97;;;;;;;6.84;64.84;100069.03;4355135;32;33601;-80
2021/12/19 08:20:40;;;;;;;13.27;6.62;;;;;;;6.99;64.87;100073.75;4379433;32;33830;-77
2021/12/19 08:23:08;;;;;;;11.10;6.30;;;;;;;7.27;63.79;100051.25;4367314;32;33515;-77
2021/12/19 08:25:36;;;;;;;10.15;5.68;;;;;;;7.30;63.75;100065.56;4362996;32;34544;-76
2021/12/19 08:28:04;;;;;;;9.82;5.68;;;;;;;7.11;64.21;100062.28;4381513;32;34651;-76
2021/12/19 08:30:33;;;;;;;10.73;5.62;;;;;;;7.28;64.72;100057.56;4389913;32;34609;-77
2021/12/19 08:33:01;;;;;;;9.43;5.45;;;;;;;7.13;64.74;100051.19;4354226;32;32353;-79
2021/12/19 08:35:29;;;;;;;19.42;8.82;;;;;;;7.36;63.88;100060.25;4377737;32;32414;-79
2021/12/19 08:37:57;;;;;;;22.70;10.05;;;;;;;7.51;63.75;100055.72;4379840;32;34521;-92
2021/12/19 08:40:29;;;;;;;11.15;5.85;;;;;;;7.06;65.37;100050.19;4364791;32;33314;-89
2021/12/19 08:42:59;;;;;;;9.23;5.35;;;;;;;7.31;64.47;100046.28;4348359;32;32272;-80
2021/12/19 08:45:29;;;;;;;11.77;5.85;;;;;;;6.68;66.52;100066.34;4352749;32;33390;-79
2021/12/19 08:47:58;;;;;;;10.63;5.62;;;;;;;7.09;65.42;100044.37;4372176;32;34295;-79
2021/12/19 08:50:28;;;;;;;8.75;5.00;;;;;;;6.99;65.70;100052.78;4351079;32;33821;-80
2021/12/19 08:52:59;;;;;;;15.43;7.20;;;;;;;7.16;65.18;100034.44;4371469;32;33676;-76
2021/12/19 08:55:26;;;;;;;10.80;5.72;;;;;;;6.73;66.61;100041.28;4375558;32;33372;-76
2021/12/19 08:57:54;;;;;;;12.27;6.18;;;;;;;7.04;66.09;100031.28;4375453;32;34360;-76
2021/12/19 09:00:25;;;;;;;14.73;7.05;;;;;;;7.16;66.18;100028.97;4389364;32;32905;-76
2021/12/19 09:02:55;;;;;;;12.25;6.10;;;;;;;7.00;65.59;100045.44;4379583;32;32645;-77
2021/12/19 09:05:26;;;;;;;11.27;6.53;;;;;;;7.06;65.69;100025.62;4367714;32;32226;-76
2021/12/19 09:07:53;;;;;;;12.50;6.43;;;;;;;6.93;66.28;100018.03;4392635;32;32855;-76
2021/12/19 09:10:23;;;;;;;13.75;7.25;;;;;;;6.87;65.81;100005.94;4392330;32;33282;-77
2021/12/19 09:12:51;;;;;;;19.00;9.48;;;;;;;7.14;65.36;100004.62;4393080;32;33042;-76
2021/12/19 09:15:20;;;;;;;12.10;6.43;;;;;;;7.03;65.39;100007.75;4381647;32;32255;-77
2021/12/19 09:17:48;;;;;;;12.13;6.10;;;;;;;7.19;64.85;99998.59;4379586;32;33219;-76
2021/12/19 09:20:19;;;;;;;10.18;5.55;;;;;;;7.15;65.21;99997.28;4391624;32;34785;-76
2021/12/19 09:22:52;;;;;;;12.18;6.05;;;;;;;7.01;65.38;99989.84;4392115;32;33510;-77
2021/12/19 09:25:20;;;;;;;10.88;5.70;;;;;;;6.94;65.34;99974.19;4392031;32;33852;-76
2021/12/19 09:27:48;;;;;;;10.52;5.40;;;;;;;7.04;65.04;99978.56;4391516;32;34087;-76
2021/12/19 09:30:16;;;;;;;11.85;5.97;;;;;;;7.04;65.26;99970.37;4391697;32;32443;-76
2021/12/19 09:32:44;;;;;;;15.98;6.00;;;;;;;6.67;66.62;99960.16;4391784;32;33851;-77
2021/12/19 09:35:14;;;;;;;15.68;8.55;;;;;;;6.91;65.88;99970.97;4391673;32;34178;-76
2021/12/19 09:37:44;;;;;;;11.45;6.20;;;;;;;6.87;65.64;99978.66;4391930;32;34390;-77
2021/12/19 09:40:17;;;;;;;10.68;5.70;;;;;;;6.66;66.26;99940.22;4393161;32;33276;-76
2021/12/19 09:42:49;;;;;;;11.32;5.70;;;;;;;6.91;65.52;99965.50;4394846;32;33508;-77
2021/12/19 09:45:20;;;;;;;10.35;5.22;;;;;;;7.01;65.17;99965.28;4394178;32;32384;-76
2021/12/19 09:47:48;;;;;;;13.27;6.47;;;;;;;7.16;64.33;99955.28;4393916;32;32930;-76
2021/12/19 09:50:16;;;;;;;12.40;6.07;;;;;;;6.93;64.89;99928.84;4394114;32;33899;-76
2021/12/19 09:52:45;;;;;;;11.82;5.70;;;;;;;7.05;64.73;99933.88;4394004;32;34041;-76
2021/12/19 09:55:18;;;;;;;11.38;5.65;;;;;;;7.04;64.41;99934.91;4407143;32;33756;-76
2021/12/19 09:57:49;;;;;;;9.35;5.05;;;;;;;7.11;64.17;99914.91;4394042;32;33783;-76
2021/12/19 10:00:20;;;;;;;10.27;5.50;;;;;;;7.35;63.91;99911.13;4394240;32;34849;-76
2021/12/19 10:02:51;;;;;;;10.00;5.43;;;;;;;7.50;63.12;99898.38;4381451;32;33270;-76
2021/12/19 10:05:22;;;;;;;9.98;5.10;;;;;;;7.75;62.58;99895.41;4393427;32;34460;-76
2021/12/19 10:07:55;;;;;;;13.75;5.53;;;;;;;7.84;62.18;99891.53;4393753;32;34448;-76
2021/12/19 10:10:59;;;;;;;12.40;6.50;;;;;;;7.87;61.78;99899.38;4393878;32;34581;-76
2021/12/19 10:13:36;;;;;;;17.15;9.43;;;;;;;7.64;62.25;99882.22;4383767;32;31900;-76
2021/12/19 10:16:24;;;;;;;;;;;;;;;7.92;60.99;99870.44;4392236;32;33589;-77
2021/12/19 10:18:53;;;;;;;10.50;4.80;;;;;;;7.20;62.99;99875.56;4369213;32;34116;-76
2021/12/19 10:21:22;;;;;;;12.18;5.35;;;;;;;7.32;62.52;99867.81;4381488;32;33933;-76
2021/12/19 10:23:49;;;;;;;9.73;4.68;;;;;;;7.68;62.01;99861.69;4381518;32;33446;-76
2021/12/19 10:26:17;;;;;;;10.77;5.47;;;;;;;7.38;62.74;99864.34;4387880;32;33793;-76
2021/12/19 10:28:54;;;;;;;11.73;6.90;;;;;;;7.70;61.88;99855.00;4384048;32;32927;-76
2021/12/19 10:31:22;;;;;;;13.30;5.70;;;;;;;7.53;62.99;99848.00;4386244;32;34517;-76
2021/12/19 10:33:51;;;;;;;9.00;5.15;;;;;;;7.88;61.42;99862.81;4386892;32;33819;-77
2021/12/19 10:36:22;;;;;;;9.70;5.35;;;;;;;7.84;61.14;99845.94;4387567;32;33809;-76
2021/12/19 10:38:56;;;;;;;10.95;5.03;;;;;;;7.77;62.15;99850.47;4399287;32;35195;-77
2021/12/19 10:41:32;;;;;;;9.60;4.82;;;;;;;8.18;59.97;99842.66;4382931;32;34681;-76
2021/12/19 10:45:29;;;;;;;10.15;5.28;;;;;;;7.90;60.28;99834.25;4384301;32;32856;-76
2021/12/19 10:46:51;;;;;;;9.65;4.60;;;;;;;7.95;60.50;99841.91;4383347;32;33648;-76
2021/12/19 10:49:32;;;;;;;9.55;4.78;;;;;;;7.88;60.48;99843.69;4383289;32;34438;-76
2021/12/19 10:52:01;;;;;;;9.13;4.82;;;;;;;7.64;61.44;99835.78;4383213;32;33946;-76
2021/12/19 10:54:29;;;;;;;9.13;4.72;;;;;;;8.03;60.01;99852.72;4377457;32;31783;-76
2021/12/19 10:57:08;;;;;;;13.07;6.80;;;;;;;8.09;60.43;99864.81;4384618;32;33155;-76
2021/12/19 10:59:36;;;;;;;11.30;5.53;;;;;;;7.91;61.29;99844.16;4383772;32;34564;-76
2021/12/19 11:02:08;;;;;;;11.38;5.32;;;;;;;8.19;59.56;99848.97;4380893;32;33785;-76
2021/12/19 11:04:37;;;;;;;8.63;4.57;;;;;;;7.68;60.76;99846.13;4371657;32;31862;-77
2021/12/19 11:07:05;;;;;;;9.43;4.82;;;;;;;7.64;60.95;99854.88;4381428;32;33750;-76
2021/12/19 11:09:41;;;;;;;11.15;4.97;;;;;;;7.83;60.63;99835.19;4383164;32;34032;-76
2021/12/19 11:12:10;;;;;;;7.90;4.30;;;;;;;8.00;60.01;99833.97;4369478;32;34163;-77
2021/12/19 11:14:47;;;;;;;8.57;4.82;;;;;;;7.67;60.26;99832.66;4383115;32;33198;-77
2021/12/19 11:17:24;;;;;;;10.95;5.15;;;;;;;7.59;60.90;99842.63;4383556;32;34631;-77
2021/12/19 11:19:54;;;;;;;9.13;5.00;;;;;;;7.44;61.36;99841.75;4368797;32;32995;-77
2021/12/19 11:22:25;;;;;;;9.15;5.10;;;;;;;7.56;61.21;99844.91;4382834;32;32391;-77
2021/12/19 11:25:03;;;;;;;9.77;5.22;;;;;;;7.86;60.06;99845.75;4379006;32;33145;-77
2021/12/19 11:27:34;;;;;;;9.07;4.70;;;;;;;7.80;60.10;99868.38;4357733;32;33152;-77
2021/12/19 11:30:05;;;;;;;9.32;4.87;;;;;;;7.86;59.62;99864.87;4358097;32;34556;-77
2021/12/19 11:32:57;;;;;;;9.80;4.75;;;;;;;7.70;59.85;99863.19;4372625;32;34010;-78
2021/12/19 11:35:29;;;;;;;11.00;5.25;;;;;;;7.92;59.71;99864.13;4384219;32;33029;-77
2021/12/19 11:38:03;;;;;;;11.98;5.85;;;;;;;8.05;59.16;99858.88;4367995;32;32119;-77
2021/12/19 11:40:36;;;;;;;24.75;12.50;;;;;;;8.30;58.40;99851.22;4358415;32;33102;-77
2021/12/19 11:43:05;;;;;;;21.90;10.63;;;;;;;8.14;59.50;99857.72;4356715;32;33334;-77
2021/12/19 11:45:43;;;;;;;12.10;5.70;;;;;;;8.02;59.27;99858.38;4369277;32;31791;-77
2021/12/19 11:48:24;;;;;;;13.45;6.00;;;;;;;8.43;58.18;99856.03;4367197;32;34351;-77
2021/12/19 11:50:56;;;;;;;11.57;5.65;;;;;;;8.67;57.18;99858.41;4354374;32;121623;-78
2021/12/19 11:53:26;;;;;;;13.02;6.62;;;;;;;8.63;57.10;99850.78;4358778;32;33371;-75
2021/12/19 11:56:06;;;;;;;11.98;6.10;;;;;;;8.46;57.36;99848.28;4368383;32;33422;-77
2021/12/19 11:58:42;;;;;;;15.85;7.45;;;;;;;8.34;58.54;99855.31;4338632;32;33612;-78
2021/12/19 12:01:32;;;;;;;8.95;5.05;;;;;;;8.25;57.77;99851.78;4368190;32;33555;-77
2021/12/19 12:04:14;;;;;;;9.13;5.65;;;;;;;8.15;58.66;99848.50;4367728;32;34068;-77
2021/12/19 12:06:56;;;;;;;9.80;5.03;;;;;;;8.10;58.63;99844.62;4369016;32;33971;-77
2021/12/19 12:09:40;;;;;;;11.40;5.55;;;;;;;8.10;58.00;99842.75;4357780;32;34475;-79
2021/12/19 12:12:15;;;;;;;11.90;5.18;;;;;;;8.05;58.48;99845.19;4380773;32;34419;-78
2021/12/19 12:14:56;;;;;;;9.82;6.18;;;;;;;7.92;58.88;99864.13;4343353;32;33817;-80
2021/12/19 12:17:31;;;;;;;13.43;7.75;;;;;;;8.01;58.27;99849.34;4345509;32;31927;-82
2021/12/19 12:20:31;;;;;;;10.10;5.15;;;;;;;8.32;57.44;99840.09;4359119;32;32162;-83
2021/12/19 12:23:08;;;;;;;12.65;6.47;;;;;;;7.73;58.97;99843.69;4337989;32;33409;-82
2021/12/19 12:25:42;;;;;;;8.77;5.40;;;;;;;7.56;59.82;99833.97;4368043;32;34526;-82
2021/12/19 12:28:20;;;;;;;9.52;4.68;;;;;;;8.00;58.36;99833.13;4357487;32;31752;-81
2021/12/19 12:30:54;;;;;;;10.75;5.03;;;;;;;7.58;59.33;99832.75;4357148;32;33859;-82
2021/12/19 12:33:27;;;;;;;10.60;5.30;;;;;;;7.34;60.37;99838.44;4356741;32;32987;-82
2021/12/19 12:35:57;;;;;;;9.43;4.93;;;;;;;7.74;61.42;99822.69;4355794;32;34691;-82
2021/12/19 12:38:28;;;;;;;9.30;5.60;;;;;;;7.69;59.65;99816.94;4343752;32;32784;-83
2021/12/19 12:41:08;;;;;;;11.27;4.70;;;;;;;7.63;59.93;99809.50;4355394;32;33405;-83
2021/12/19 12:43:40;;;;;;;9.43;4.45;;;;;;;7.48;61.59;99810.31;4355528;32;32518;-80